Time,TemperatureF,DewpointF,PressureIn,WindDirection,WindDirectionDegrees,WindSpeedMPH,WindSpeedGustMPH,Humidity,HourlyPrecipIn,Conditions,Clouds,dailyrainin,SolarRadiationWatts/m^2,SoftwareType,DateUTC
2013-11-18 00:01:00,63.2,55.1,29.68,SSW,206,13.6,19.5,75,0.00,OVC,,0.00,0.0,WeatherDisplay:10.37,2013-11-18 05:01:00,
2013-11-18 00:02:00,63.2,55.1,29.68,SW,229,22.6,28.5,75,0.00,OVC,,0.00,0.0,WeatherDisplay:10.37,2013-11-18 05:02:00,
2013-11-18 00:05:00,63.2,55.1,29.68,SSW,211,14.2,25.3,75,0.00,OVC,,0.00,0.0,WeatherDisplay:10.37,2013-11-18 05:05:00,
2013-11-18 00:10:00,63.2,55.1,29.68,South,180,10.7,15.0,75,0.00,OVC,,0.00,0.0,WeatherDisplay:10.37,2013-11-18 05:10:00,
2013-11-18 00:15:00,63.2,55.1,29.67,SW,217,11.4,25.3,75,0.00,OVC,,0.00,0.0,WeatherDisplay:10.37,2013-11-18 05:15:00,
2013-11-18 00:20:00,63.2,55.1,29.67,SW,228,13.5,18.4,75,0.00,OVC,,0.00,0.0,WeatherDisplay:10.37,2013-11-18 05:20:00,
2013-11-18 00:25:00,63.2,55.1,29.67,SW,229,9.5,13.8,75,0.00,OVC,,0.00,0.0,WeatherDisplay:10.37,2013-11-18 05:25:00,
2013-11-18 00:30:00,63.2,55.1,29.67,SW,217,11.4,13.8,75,0.00,OVC,,0.00,0.0,WeatherDisplay:10.37,2013-11-18 05:30:00,
2013-11-18 00:35:00,63.2,55.1,29.66,SSW,207,16.0,19.6,75,0.00,OVC,,0.00,0.0,WeatherDisplay:10.37,2013-11-18 05:35:00,
2013-11-18 00:40:00,63.2,55.1,29.67,SW,236,11.6,15.0,75,0.00,OVC,,0.00,0.0,WeatherDisplay:10.37,2013-11-18 05:40:00,
2013-11-18 00:45:00,63.2,55.1,29.68,SW,225,9.1,13.8,75,0.00,OVC,,0.00,0.0,WeatherDisplay:10.37,2013-11-18 05:45:00,
2013-11-18 00:50:00,63.2,55.1,29.68,SW,223,9.8,10.5,75,0.00,OVC,,0.00,0.0,WeatherDisplay:10.37,2013-11-18 05:50:00,
2013-11-18 00:55:00,63.1,55.0,29.67,SSE,148,8.4,10.5,75,0.00,OVC,,0.00,0.0,WeatherDisplay:10.37,2013-11-18 05:55:00,
2013-11-18 01:00:00,63.1,55.4,29.68,SW,219,14.0,16.1,76,0.01,RA,,0.01,0.0,WeatherDisplay:10.37,2013-11-18 06:00:00,
2013-11-18 01:05:00,62.4,55.1,29.75,WNW,292,35.7,40.3,77,0.03,RA,,0.04,0.0,WeatherDisplay:10.37,2013-11-18 06:05:00,
2013-11-18 01:10:00,58.4,50.9,29.76,West,271,28.9,30.0,76,0.11,RA,,0.12,0.0,WeatherDisplay:10.37,2013-11-18 06:10:00,
2013-11-18 01:15:00,56.5,49.7,29.76,West,266,13.4,19.6,78,0.13,RA,,0.13,0.0,WeatherDisplay:10.37,2013-11-18 06:15:00,
2013-11-18 01:20:00,55.7,49.3,29.75,West,273,10.5,13.5,79,0.13,RA,,0.13,0.0,WeatherDisplay:10.37,2013-11-18 06:20:00,
2013-11-18 01:25:00,55.6,48.8,29.76,West,281,5.3,10.4,78,0.13,OVC,,0.13,0.0,WeatherDisplay:10.37,2013-11-18 06:25:00,
2013-11-18 01:30:00,55.6,48.5,29.75,SW,223,1.2,3.5,77,0.13,OVC,,0.13,0.0,WeatherDisplay:10.37,2013-11-18 06:30:00,
2013-11-18 01:35:00,55.4,48.3,29.75,WSW,254,1.6,4.6,77,0.13,OVC,,0.13,0.0,WeatherDisplay:10.37,2013-11-18 06:35:00,
2013-11-18 01:40:00,55.6,47.8,29.75,WSW,248,0.0,1.2,75,0.14,RA,,0.14,0.0,WeatherDisplay:10.37,2013-11-18 06:40:00,
2013-11-18 01:45:00,55.4,47.6,29.75,WSW,248,0.0,1.2,75,0.14,RA,,0.14,0.0,WeatherDisplay:10.37,2013-11-18 06:45:00,
2013-11-18 01:50:00,55.3,47.5,29.75,WSW,248,0.1,1.5,75,0.14,OVC,,0.14,0.0,WeatherDisplay:10.37,2013-11-18 06:50:00,
2013-11-18 01:55:00,55.1,47.7,29.75,WSW,248,0.0,1.5,76,0.14,OVC,,0.14,0.0,WeatherDisplay:10.37,2013-11-18 06:55:00,
2013-11-18 02:00:00,54.8,47.7,29.75,SSE,159,2.1,4.6,77,0.13,OVC,,0.14,0.0,WeatherDisplay:10.37,2013-11-18 07:00:00,
2013-11-18 02:05:00,54.8,48.1,29.75,SSE,148,1.9,9.2,78,0.11,OVC,,0.14,0.0,WeatherDisplay:10.37,2013-11-18 07:05:00,
2013-11-18 02:10:00,54.8,48.1,29.75,SSE,153,2.4,4.6,78,0.03,OVC,,0.14,0.0,WeatherDisplay:10.37,2013-11-18 07:10:00,
2013-11-18 02:15:00,54.8,48.1,29.74,SSE,167,0.7,3.5,78,0.01,OVC,,0.14,0.0,WeatherDisplay:10.37,2013-11-18 07:15:00,
2013-11-18 02:20:00,54.8,48.1,29.74,South,181,1.0,4.6,78,0.01,OVC,,0.14,0.0,WeatherDisplay:10.37,2013-11-18 07:20:00,
2013-11-18 02:25:00,55.0,48.3,29.73,South,182,0.0,0.0,78,0.01,OVC,,0.14,0.0,WeatherDisplay:10.37,2013-11-18 07:25:00,
2013-11-18 02:30:00,55.0,48.3,29.73,South,188,2.1,4.6,78,0.01,OVC,,0.14,0.0,WeatherDisplay:10.37,2013-11-18 07:30:00,
2013-11-18 02:35:00,55.0,48.3,29.73,WSW,257,1.5,3.5,78,0.01,OVC,,0.14,0.0,WeatherDisplay:10.37,2013-11-18 07:35:00,
2013-11-18 02:40:00,55.0,48.3,29.73,WSW,250,0.1,1.5,78,0.00,OVC,,0.14,0.0,WeatherDisplay:10.37,2013-11-18 07:40:00,
2013-11-18 02:45:00,55.0,48.3,29.73,WSW,250,0.1,1.5,78,0.00,OVC,,0.14,0.0,WeatherDisplay:10.37,2013-11-18 07:45:00,
2013-11-18 02:50:00,55.0,48.3,29.73,West,265,0.3,1.5,78,0.00,OVC,,0.14,0.0,WeatherDisplay:10.37,2013-11-18 07:50:00,
2013-11-18 02:55:00,55.0,47.9,29.73,West,265,0.0,0.0,77,0.00,-RA,,0.14,0.0,WeatherDisplay:10.37,2013-11-18 07:55:00,
2013-11-18 03:00:00,55.0,47.9,29.73,West,264,0.0,0.0,77,0.00,-RA,,0.14,0.0,WeatherDisplay:10.37,2013-11-18 08:00:00,
2013-11-18 03:05:00,55.1,47.7,29.73,West,264,0.0,0.0,76,0.00,OVC,,0.14,0.0,WeatherDisplay:10.37,2013-11-18 08:05:00,
2013-11-18 03:10:00,55.1,47.7,29.73,West,264,0.0,0.0,76,0.00,OVC,,0.14,0.0,WeatherDisplay:10.37,2013-11-18 08:10:00,
2013-11-18 03:15:00,55.1,47.7,29.74,West,264,0.0,0.0,76,0.00,OVC,,0.14,0.0,WeatherDisplay:10.37,2013-11-18 08:15:00,
2013-11-18 03:20:00,55.1,48.0,29.74,West,264,0.1,1.5,77,0.00,OVC,,0.14,0.0,WeatherDisplay:10.37,2013-11-18 08:20:00,
2013-11-18 03:25:00,55.0,47.9,29.73,West,264,0.0,0.0,77,0.00,OVC,,0.14,0.0,WeatherDisplay:10.37,2013-11-18 08:25:00,
2013-11-18 03:30:00,54.8,48.1,29.74,West,264,0.0,0.0,78,0.00,OVC,,0.14,0.0,WeatherDisplay:10.37,2013-11-18 08:30:00,
2013-11-18 03:35:00,54.7,48.0,29.73,West,264,0.0,0.0,78,0.00,OVC,,0.14,0.0,WeatherDisplay:10.37,2013-11-18 08:35:00,
2013-11-18 03:40:00,54.5,47.8,29.73,West,264,0.0,0.0,78,0.00,OVC,,0.14,0.0,WeatherDisplay:10.37,2013-11-18 08:40:00,
2013-11-18 03:45:00,54.4,47.3,29.74,West,264,1.3,4.5,77,0.00,OVC,,0.14,0.0,WeatherDisplay:10.37,2013-11-18 08:45:00,
2013-11-18 03:50:00,54.4,46.6,29.73,West,264,0.3,3.5,75,0.00,OVC,,0.14,0.0,WeatherDisplay:10.37,2013-11-18 08:50:00,
2013-11-18 03:55:00,55.0,44.2,29.73,West,266,5.9,6.0,67,0.00,OVC,,0.14,0.0,WeatherDisplay:10.37,2013-11-18 08:55:00,
2013-11-18 04:00:00,56.2,42.5,29.74,WNW,290,7.8,10.5,60,0.00,OVC,,0.14,0.0,WeatherDisplay:10.37,2013-11-18 09:00:00,
2013-11-18 04:05:00,57.5,40.5,29.73,WSW,242,8.9,10.4,53,0.00,OVC,,0.14,0.0,WeatherDisplay:10.37,2013-11-18 09:05:00,
2013-11-18 04:10:00,58.0,40.0,29.74,WSW,250,11.5,11.5,51,0.00,OVC,,0.14,0.0,WeatherDisplay:10.37,2013-11-18 09:10:00,
2013-11-18 04:15:00,58.3,40.2,29.74,SW,229,2.9,5.8,51,0.00,OVC,,0.14,0.0,WeatherDisplay:10.37,2013-11-18 09:15:00,
2013-11-18 04:20:00,58.3,40.2,29.74,WSW,257,4.9,8.1,51,0.00,OVC,,0.14,0.0,WeatherDisplay:10.37,2013-11-18 09:20:00,
2013-11-18 04:25:00,58.3,39.7,29.73,WNW,287,6.4,8.1,50,0.00,OVC,,0.14,0.0,WeatherDisplay:10.37,2013-11-18 09:25:00,
2013-11-18 04:30:00,58.3,39.2,29.73,WNW,286,3.8,6.0,49,0.00,OVC,,0.14,0.0,WeatherDisplay:10.37,2013-11-18 09:30:00,
2013-11-18 04:35:00,58.7,38.0,29.73,WSW,258,3.7,9.2,46,0.00,OVC,,0.14,0.0,WeatherDisplay:10.37,2013-11-18 09:35:00,
2013-11-18 04:40:00,58.9,37.6,29.73,WSW,254,1.9,4.6,45,0.00,OVC,,0.14,0.0,WeatherDisplay:10.37,2013-11-18 09:40:00,
2013-11-18 04:45:00,58.7,37.4,29.74,SW,227,7.4,15.0,45,0.00,OVC,,0.14,0.0,WeatherDisplay:10.37,2013-11-18 09:45:00,
2013-11-18 04:50:00,58.9,36.4,29.74,SW,227,6.2,10.5,43,0.00,OVC,,0.14,0.0,WeatherDisplay:10.37,2013-11-18 09:50:00,
2013-11-18 04:55:00,59.2,36.1,29.74,West,267,9.1,15.0,42,0.00,OVC,,0.14,0.0,WeatherDisplay:10.37,2013-11-18 09:55:00,
2013-11-18 05:00:00,59.2,34.2,29.74,SW,232,9.5,13.5,39,0.00,OVC,,0.14,0.0,WeatherDisplay:10.37,2013-11-18 10:00:00,
2013-11-18 05:05:00,59.3,34.3,29.74,West,278,15.7,19.6,39,0.00,OVC,,0.14,0.0,WeatherDisplay:10.37,2013-11-18 10:05:00,
2013-11-18 05:10:00,59.3,33.0,29.74,West,276,2.3,9.2,37,0.00,OVC,,0.14,0.0,WeatherDisplay:10.37,2013-11-18 10:10:00,
2013-11-18 05:15:00,59.3,33.0,29.74,West,277,5.9,9.2,37,0.00,OVC,,0.14,0.0,WeatherDisplay:10.37,2013-11-18 10:15:00,
2013-11-18 05:20:00,59.2,32.9,29.74,West,276,7.2,8.1,37,0.00,OVC,,0.14,0.0,WeatherDisplay:10.37,2013-11-18 10:20:00,
2013-11-18 05:25:00,59.2,32.2,29.74,SSW,202,5.9,9.2,36,0.00,OVC,,0.14,0.0,WeatherDisplay:10.37,2013-11-18 10:25:00,
2013-11-18 05:30:00,58.9,32.0,29.74,SW,225,8.8,10.5,36,0.00,OVC,,0.14,0.0,WeatherDisplay:10.37,2013-11-18 10:30:00,
2013-11-18 05:35:00,58.7,31.8,29.74,WSW,250,6.3,8.1,36,0.00,OVC,,0.14,0.0,WeatherDisplay:10.37,2013-11-18 10:35:00,
2013-11-18 05:40:00,58.4,32.2,29.74,WNW,294,1.9,9.2,37,0.00,OVC,,0.14,0.0,WeatherDisplay:10.37,2013-11-18 10:40:00,
2013-11-18 05:45:00,58.3,32.1,29.74,SW,227,7.4,10.5,37,0.00,OVC,,0.14,0.0,WeatherDisplay:10.37,2013-11-18 10:45:00,
2013-11-18 05:50:00,58.3,31.4,29.74,WNW,290,2.7,4.6,36,0.00,OVC,,0.14,0.0,WeatherDisplay:10.37,2013-11-18 10:50:00,
2013-11-18 05:55:00,58.3,30.7,29.74,SW,231,7.4,10.4,35,0.00,OVC,,0.14,0.0,WeatherDisplay:10.37,2013-11-18 10:55:00,
2013-11-18 06:00:00,58.3,31.4,29.74,West,267,2.0,9.2,36,0.00,OVC,,0.14,0.0,WeatherDisplay:10.37,2013-11-18 11:00:00,
2013-11-18 06:05:00,57.8,31.0,29.74,SSW,202,3.2,5.8,36,0.00,OVC,,0.14,0.0,WeatherDisplay:10.37,2013-11-18 11:05:00,
2013-11-18 06:10:00,57.6,30.1,29.74,WNW,289,8.3,16.1,35,0.00,OVC,,0.14,0.0,WeatherDisplay:10.37,2013-11-18 11:10:00,
2013-11-18 06:15:00,57.6,30.8,29.75,WSW,248,2.4,9.2,36,0.00,OVC,,0.14,0.0,WeatherDisplay:10.37,2013-11-18 11:15:00,
2013-11-18 06:20:00,57.8,30.3,29.75,SW,227,1.0,6.0,35,0.00,OVC,,0.14,0.0,WeatherDisplay:10.37,2013-11-18 11:20:00,
2013-11-18 06:25:00,57.5,30.7,29.75,SW,214,0.2,3.0,36,0.00,OVC,,0.14,0.0,WeatherDisplay:10.37,2013-11-18 11:25:00,
2013-11-18 06:30:00,57.0,31.0,29.75,SW,214,0.1,3.5,37,0.00,OVC,,0.14,0.0,WeatherDisplay:10.37,2013-11-18 11:30:00,
2013-11-18 06:35:00,56.2,30.9,29.76,SW,214,0.2,1.5,38,0.00,OVC,,0.14,0.0,WeatherDisplay:10.37,2013-11-18 11:35:00,
2013-11-18 06:40:00,55.7,31.1,29.76,SW,214,0.0,0.0,39,0.00,OVC,,0.14,0.0,WeatherDisplay:10.37,2013-11-18 11:40:00,
2013-11-18 06:45:00,55.1,31.2,29.76,SW,214,0.1,1.5,40,0.00,OVC,,0.14,0.0,WeatherDisplay:10.37,2013-11-18 11:45:00,
2013-11-18 06:50:00,54.5,31.3,29.76,SW,232,0.0,0.0,41,0.00,OVC,,0.14,0.0,WeatherDisplay:10.37,2013-11-18 11:50:00,
2013-11-18 06:55:00,54.5,30.0,29.76,SW,232,0.2,1.5,39,0.00,OVC,,0.14,0.0,WeatherDisplay:10.37,2013-11-18 11:55:00,
2013-11-18 07:00:00,54.5,30.0,29.76,SW,232,0.0,0.0,39,0.00,OVC,,0.14,0.0,WeatherDisplay:10.37,2013-11-18 12:00:00,
2013-11-18 07:05:00,54.4,29.9,29.76,SW,232,0.0,0.0,39,0.00,SCT,,0.14,5.0,WeatherDisplay:10.37,2013-11-18 12:05:00,
2013-11-18 07:10:00,53.9,30.1,29.77,SW,232,0.0,0.0,40,0.00,SCT,,0.14,7.0,WeatherDisplay:10.37,2013-11-18 12:10:00,
2013-11-18 07:15:00,53.6,30.4,29.77,SW,232,0.0,0.0,41,0.00,SCT,,0.14,9.0,WeatherDisplay:10.37,2013-11-18 12:15:00,
2013-11-18 07:20:00,53.5,30.4,29.77,SW,232,1.0,8.1,41,0.00,SCT,,0.14,12.0,WeatherDisplay:10.37,2013-11-18 12:20:00,
2013-11-18 07:25:00,54.1,30.3,29.77,West,279,3.4,4.6,40,0.00,SCT,,0.14,14.0,WeatherDisplay:10.37,2013-11-18 12:25:00,
2013-11-18 07:30:00,55.3,30.1,29.76,West,275,6.3,9.2,38,0.00,SCT,,0.14,16.0,WeatherDisplay:10.37,2013-11-18 12:30:00,
2013-11-18 07:35:00,56.2,30.2,29.76,West,275,4.8,6.0,37,0.00,SCT,,0.14,23.0,WeatherDisplay:10.37,2013-11-18 12:35:00,
2013-11-18 07:40:00,56.5,29.1,29.76,SW,229,9.2,13.8,35,0.00,SCT,,0.14,26.0,WeatherDisplay:10.37,2013-11-18 12:40:00,
2013-11-18 07:45:00,57.2,29.8,29.76,West,275,6.4,10.5,35,0.00,SCT,,0.14,42.0,WeatherDisplay:10.37,2013-11-18 12:45:00,
2013-11-18 07:50:00,57.5,29.3,29.76,SW,228,4.7,9.2,34,0.00,SCT,,0.14,32.0,WeatherDisplay:10.37,2013-11-18 12:50:00,
2013-11-18 07:55:00,57.6,28.7,29.77,SW,234,3.3,8.1,33,0.00,SCT,,0.14,32.0,WeatherDisplay:10.37,2013-11-18 12:55:00,
2013-11-18 08:00:00,58.0,29.8,29.77,WSW,240,1.3,8.1,34,0.00,SCT,,0.14,76.0,WeatherDisplay:10.37,2013-11-18 13:00:00,
2013-11-18 08:05:00,58.0,31.2,29.78,SW,222,2.4,5.8,36,0.00,SCT,,0.14,72.0,WeatherDisplay:10.37,2013-11-18 13:05:00,
2013-11-18 08:10:00,57.5,32.7,29.78,SSW,209,4.4,5.8,39,0.00,SCT,,0.14,60.0,WeatherDisplay:10.37,2013-11-18 13:10:00,
2013-11-18 08:15:00,57.2,32.4,29.78,SW,214,5.4,6.0,39,0.00,FEW,,0.14,60.0,WeatherDisplay:10.37,2013-11-18 13:15:00,
2013-11-18 08:20:00,57.0,32.9,29.78,West,267,5.8,7.5,40,0.00,FEW,,0.14,88.0,WeatherDisplay:10.37,2013-11-18 13:20:00,
2013-11-18 08:25:00,57.0,33.5,29.78,West,269,2.9,6.0,41,0.00,FEW,,0.14,54.0,WeatherDisplay:10.37,2013-11-18 13:25:00,
2013-11-18 08:30:00,57.2,33.1,29.78,West,280,4.8,10.4,40,0.00,FEW,,0.14,91.0,WeatherDisplay:10.37,2013-11-18 13:30:00,
2013-11-18 08:35:00,57.5,32.7,29.78,West,271,6.9,9.2,39,0.00,FEW,,0.14,77.0,WeatherDisplay:10.37,2013-11-18 13:35:00,
2013-11-18 08:40:00,57.8,33.0,29.78,WNW,284,6.2,9.2,39,0.00,FEW,,0.14,84.0,WeatherDisplay:10.37,2013-11-18 13:40:00,
2013-11-18 08:45:00,58.1,33.9,29.78,WNW,299,5.0,8.1,40,0.00,FEW,,0.14,97.0,WeatherDisplay:10.37,2013-11-18 13:45:00,
2013-11-18 08:50:00,58.6,33.0,29.78,WNW,302,12.3,15.0,38,0.00,FEW,,0.14,148.0,WeatherDisplay:10.37,2013-11-18 13:50:00,
2013-11-18 08:55:00,59.3,30.2,29.78,SW,232,11.1,15.0,33,0.00,FEW,,0.14,262.0,WeatherDisplay:10.37,2013-11-18 13:55:00,
2013-11-18 09:00:00,59.8,29.1,29.78,WSW,253,14.7,15.0,31,0.00,FEW,,0.14,283.0,WeatherDisplay:10.37,2013-11-18 14:00:00,
2013-11-18 09:05:00,60.1,29.3,29.78,WNW,302,7.8,13.5,31,0.00,FEW,,0.14,295.0,WeatherDisplay:10.37,2013-11-18 14:05:00,
2013-11-18 09:10:00,60.2,30.2,29.78,SW,224,8.2,16.1,32,0.00,FEW,,0.14,306.0,WeatherDisplay:10.37,2013-11-18 14:10:00,
2013-11-18 09:15:00,60.4,28.8,29.78,NW,312,11.8,19.6,30,0.00,FEW,,0.14,322.0,WeatherDisplay:10.37,2013-11-18 14:15:00,
2013-11-18 09:20:00,60.4,29.6,29.78,West,264,8.8,15.0,31,0.00,FEW,,0.14,330.0,WeatherDisplay:10.37,2013-11-18 14:20:00,
2013-11-18 09:25:00,60.5,28.9,29.78,WSW,248,16.8,20.7,30,0.00,FEW,,0.14,343.0,WeatherDisplay:10.37,2013-11-18 14:25:00,
2013-11-18 09:30:00,60.7,29.9,29.79,West,267,13.1,15.0,31,0.00,FEW,,0.14,352.0,WeatherDisplay:10.37,2013-11-18 14:30:00,
2013-11-18 09:35:00,60.9,30.0,29.79,West,277,6.8,9.2,31,0.00,FEW,,0.14,360.0,WeatherDisplay:10.37,2013-11-18 14:35:00,
2013-11-18 09:40:00,61.0,30.1,29.79,NW,313,9.0,10.4,31,0.00,FEW,,0.14,373.0,WeatherDisplay:10.37,2013-11-18 14:40:00,
2013-11-18 09:45:00,61.2,29.5,29.79,West,280,10.8,10.8,30,0.00,FEW,,0.14,383.0,WeatherDisplay:10.37,2013-11-18 14:45:00,
2013-11-18 09:50:00,61.3,30.4,29.79,WSW,258,8.6,16.5,31,0.00,FEW,,0.14,392.0,WeatherDisplay:10.37,2013-11-18 14:50:00,
2013-11-18 09:55:00,61.3,28.7,29.79,SW,229,8.8,12.0,29,0.00,FEW,,0.14,403.0,WeatherDisplay:10.37,2013-11-18 14:55:00,
2013-11-18 10:00:00,61.3,28.7,29.79,West,271,11.1,15.0,29,0.00,FEW,,0.14,410.0,WeatherDisplay:10.37,2013-11-18 15:00:00,
2013-11-18 10:05:00,61.6,30.6,29.79,WNW,284,7.9,10.5,31,0.00,FEW,,0.14,420.0,WeatherDisplay:10.37,2013-11-18 15:05:00,
2013-11-18 10:10:00,61.6,28.1,29.79,WSW,239,9.4,15.0,28,0.00,FEW,,0.14,427.0,WeatherDisplay:10.37,2013-11-18 15:10:00,
2013-11-18 10:15:00,61.5,28.1,29.79,WNW,288,16.0,19.5,28,0.00,FEW,,0.14,436.0,WeatherDisplay:10.37,2013-11-18 15:15:00,
2013-11-18 10:20:00,61.3,26.1,29.80,WSW,248,11.3,19.6,26,0.00,FEW,,0.14,443.0,WeatherDisplay:10.37,2013-11-18 15:20:00,
2013-11-18 10:25:00,61.2,26.9,29.80,WNW,293,10.8,13.8,27,0.00,FEW,,0.14,448.0,WeatherDisplay:10.37,2013-11-18 15:25:00,
2013-11-18 10:30:00,61.3,27.0,29.80,NW,307,10.5,15.0,27,0.00,FEW,,0.14,452.0,WeatherDisplay:10.37,2013-11-18 15:30:00,
2013-11-18 10:35:00,61.3,27.9,29.79,NW,306,10.5,16.5,28,0.00,FEW,,0.14,461.0,WeatherDisplay:10.37,2013-11-18 15:35:00,
2013-11-18 10:40:00,61.5,28.1,29.79,WNW,289,10.9,21.0,28,0.00,FEW,,0.14,466.0,WeatherDisplay:10.37,2013-11-18 15:40:00,
2013-11-18 10:45:00,61.6,29.8,29.79,SW,236,4.0,6.0,30,0.00,FEW,,0.14,469.0,WeatherDisplay:10.37,2013-11-18 15:45:00,
2013-11-18 10:50:00,62.0,29.3,29.79,WSW,248,7.4,9.2,29,0.00,FEW,,0.14,473.0,WeatherDisplay:10.37,2013-11-18 15:50:00,
2013-11-18 10:51:00,62.0,30.2,29.79,WSW,246,8.3,9.2,30,0.00,FEW,,0.14,476.0,WeatherDisplay:10.37,2013-11-18 15:51:00,
2013-11-18 10:56:00,62.1,29.4,29.79,West,279,12.1,12.1,29,0.00,FEW,,0.14,478.0,WeatherDisplay:10.37,2013-11-18 15:56:00,
2013-11-18 11:01:00,62.3,28.7,29.79,West,271,7.0,15.0,28,0.00,FEW,,0.14,483.0,WeatherDisplay:10.37,2013-11-18 16:01:00,
2013-11-18 11:06:00,62.6,29.9,29.79,West,278,10.5,13.8,29,0.00,FEW,,0.14,485.0,WeatherDisplay:10.37,2013-11-18 16:06:00,
2013-11-18 11:11:00,62.7,28.2,29.79,WSW,254,11.8,16.1,27,0.00,FEW,,0.14,490.0,WeatherDisplay:10.37,2013-11-18 16:11:00,
2013-11-18 11:16:00,62.7,28.2,29.78,WNW,294,10.9,15.0,27,0.00,FEW,,0.14,492.0,WeatherDisplay:10.37,2013-11-18 16:16:00,
2013-11-18 11:21:00,62.7,25.3,29.78,WNW,290,19.1,21.0,24,0.00,FEW,,0.14,496.0,WeatherDisplay:10.37,2013-11-18 16:21:00,
2013-11-18 11:26:00,62.6,24.2,29.77,WSW,237,16.9,16.9,23,0.00,FEW,,0.14,497.0,WeatherDisplay:10.37,2013-11-18 16:26:00,
2013-11-18 11:31:00,62.7,25.3,29.77,NW,316,9.3,23.0,24,0.00,FEW,,0.14,497.0,WeatherDisplay:10.37,2013-11-18 16:31:00,
2013-11-18 11:36:00,63.1,25.7,29.77,WNW,298,11.9,13.8,24,0.00,FEW,,0.14,501.0,WeatherDisplay:10.37,2013-11-18 16:36:00,
2013-11-18 11:41:00,63.1,25.7,29.77,WSW,244,11.2,16.1,24,0.00,FEW,,0.14,503.0,WeatherDisplay:10.37,2013-11-18 16:41:00,
2013-11-18 11:46:00,63.2,26.8,29.77,West,265,7.8,15.0,25,0.00,FEW,,0.14,504.0,WeatherDisplay:10.37,2013-11-18 16:46:00,
2013-11-18 11:51:00,63.1,26.7,29.77,WNW,290,11.0,16.1,25,0.00,FEW,,0.14,508.0,WeatherDisplay:10.37,2013-11-18 16:51:00,
2013-11-18 11:56:00,63.2,25.8,29.77,WNW,284,7.6,9.0,24,0.00,FEW,,0.14,508.0,WeatherDisplay:10.37,2013-11-18 16:56:00,
2013-11-18 12:01:00,63.4,21.6,29.77,West,272,19.0,27.0,20,0.00,FEW,,0.14,508.0,WeatherDisplay:10.37,2013-11-18 17:01:00,
2013-11-18 12:06:00,63.4,23.8,29.76,West,267,11.6,13.5,22,0.00,CLR,,0.14,504.0,WeatherDisplay:10.37,2013-11-18 17:06:00,
2013-11-18 12:11:00,63.4,21.6,29.76,WNW,300,9.3,10.4,20,0.00,CLR,,0.14,501.0,WeatherDisplay:10.37,2013-11-18 17:11:00,
2013-11-18 12:16:00,63.7,25.2,29.76,WNW,288,2.5,10.4,23,0.00,CLR,,0.14,499.0,WeatherDisplay:10.37,2013-11-18 17:16:00,
2013-11-18 12:21:00,63.9,24.3,29.75,WNW,298,16.5,23.0,22,0.00,CLR,,0.14,499.0,WeatherDisplay:10.37,2013-11-18 17:21:00,
2013-11-18 12:26:00,63.7,24.1,29.75,WNW,286,11.4,13.8,22,0.00,CLR,,0.14,499.0,WeatherDisplay:10.37,2013-11-18 17:26:00,
2013-11-18 12:31:00,63.7,23.0,29.75,West,279,18.2,24.0,21,0.00,CLR,,0.14,501.0,WeatherDisplay:10.37,2013-11-18 17:31:00,
2013-11-18 12:36:00,63.7,19.3,29.75,WNW,282,21.6,24.0,18,0.00,CLR,,0.14,497.0,WeatherDisplay:10.37,2013-11-18 17:36:00,
2013-11-18 12:41:00,63.4,20.4,29.75,WSW,243,17.4,24.2,19,0.00,CLR,,0.14,494.0,WeatherDisplay:10.37,2013-11-18 17:41:00,
2013-11-18 12:46:00,63.5,20.5,29.75,West,275,21.6,25.5,19,0.00,CLR,,0.14,489.0,WeatherDisplay:10.37,2013-11-18 17:46:00,
2013-11-18 12:51:00,63.7,20.6,29.74,West,273,18.3,24.2,19,0.00,CLR,,0.14,482.0,WeatherDisplay:10.37,2013-11-18 17:51:00,
2013-11-18 12:56:00,64.0,22.1,29.74,NW,315,16.2,16.2,20,0.00,CLR,,0.14,475.0,WeatherDisplay:10.37,2013-11-18 17:56:00,
2013-11-18 13:01:00,64.2,19.8,29.75,WNW,290,21.0,21.0,18,0.00,CLR,,0.14,469.0,WeatherDisplay:10.37,2013-11-18 18:01:00,
2013-11-18 13:06:00,63.9,22.0,29.75,SW,227,17.3,21.0,20,0.00,CLR,,0.14,464.0,WeatherDisplay:10.37,2013-11-18 18:06:00,
2013-11-18 13:11:00,64.2,22.2,29.75,WNW,292,15.9,23.0,20,0.00,CLR,,0.14,459.0,WeatherDisplay:10.37,2013-11-18 18:11:00,
2013-11-18 13:16:00,64.2,21.0,29.75,WNW,283,20.9,25.3,19,0.00,CLR,,0.14,450.0,WeatherDisplay:10.37,2013-11-18 18:16:00,
2013-11-18 13:21:00,64.0,16.8,29.75,NW,306,19.2,21.0,16,0.00,CLR,,0.14,445.0,WeatherDisplay:10.37,2013-11-18 18:21:00,
2013-11-18 13:26:00,64.3,19.8,29.75,WNW,298,8.7,15.0,18,0.00,CLR,,0.14,438.0,WeatherDisplay:10.37,2013-11-18 18:26:00,
2013-11-18 13:31:00,64.5,20.0,29.75,SW,225,17.4,20.7,18,0.00,CLR,,0.14,429.0,WeatherDisplay:10.37,2013-11-18 18:31:00,
2013-11-18 13:36:00,64.3,18.5,29.75,SW,234,18.0,26.5,17,0.00,CLR,,0.14,424.0,WeatherDisplay:10.37,2013-11-18 18:36:00,
2013-11-18 13:41:00,64.5,20.0,29.75,West,281,10.7,10.7,18,0.00,CLR,,0.14,415.0,WeatherDisplay:10.37,2013-11-18 18:41:00,
2013-11-18 13:46:00,64.5,21.3,29.75,WSW,249,5.4,8.1,19,0.00,CLR,,0.14,406.0,WeatherDisplay:10.37,2013-11-18 18:46:00,
2013-11-18 13:51:00,64.7,21.4,29.75,WNW,294,11.3,15.0,19,0.00,CLR,,0.14,401.0,WeatherDisplay:10.37,2013-11-18 18:51:00,
2013-11-18 13:56:00,64.3,15.6,29.75,WSW,251,19.7,25.3,15,0.00,CLR,,0.14,392.0,WeatherDisplay:10.37,2013-11-18 18:56:00,
2013-11-18 14:01:00,64.0,16.8,29.75,West,268,23.5,24.2,16,0.00,CLR,,0.14,385.0,WeatherDisplay:10.37,2013-11-18 19:01:00,
2013-11-18 14:06:00,63.9,15.3,29.75,WNW,297,28.2,28.2,15,0.00,CLR,,0.14,373.0,WeatherDisplay:10.37,2013-11-18 19:06:00,
2013-11-18 14:11:00,63.9,16.8,29.75,WSW,245,15.3,19.6,16,0.00,CLR,,0.14,362.0,WeatherDisplay:10.37,2013-11-18 19:11:00,
2013-11-18 14:16:00,63.9,16.8,29.75,West,267,16.1,18.4,16,0.00,CLR,,0.14,352.0,WeatherDisplay:10.37,2013-11-18 19:16:00,
2013-11-18 14:21:00,64.2,18.4,29.75,WSW,250,14.9,18.4,17,0.00,CLR,,0.14,343.0,WeatherDisplay:10.37,2013-11-18 19:21:00,
2013-11-18 14:26:00,64.3,17.1,29.75,WSW,241,12.3,16.1,16,0.00,CLR,,0.14,332.0,WeatherDisplay:10.37,2013-11-18 19:26:00,
2013-11-18 14:31:00,64.3,18.5,29.75,NW,307,9.2,9.2,17,0.00,CLR,,0.14,322.0,WeatherDisplay:10.37,2013-11-18 19:31:00,
2013-11-18 14:36:00,64.0,15.4,29.75,WNW,301,22.4,25.3,15,0.00,CLR,,0.14,308.0,WeatherDisplay:10.37,2013-11-18 19:36:00,
2013-11-18 14:41:00,63.7,15.1,29.75,WNW,289,20.1,24.2,15,0.00,CLR,,0.14,297.0,WeatherDisplay:10.37,2013-11-18 19:41:00,
2013-11-18 14:46:00,63.5,16.4,29.75,WNW,302,12.6,20.7,16,0.00,CLR,,0.14,287.0,WeatherDisplay:10.37,2013-11-18 19:46:00,
2013-11-18 14:51:00,63.5,15.0,29.74,WNW,283,21.1,24.2,15,0.00,CLR,,0.14,276.0,WeatherDisplay:10.37,2013-11-18 19:51:00,
2013-11-18 14:56:00,63.4,16.4,29.75,WNW,290,18.5,19.6,16,0.00,CLR,,0.14,260.0,WeatherDisplay:10.37,2013-11-18 19:56:00,
2013-11-18 15:01:00,63.2,18.9,29.75,WNW,290,11.3,15.0,18,0.00,CLR,,0.14,246.0,WeatherDisplay:10.37,2013-11-18 20:01:00,
2013-11-18 15:06:00,63.5,17.8,29.75,WNW,285,11.6,16.5,17,0.00,CLR,,0.14,232.0,WeatherDisplay:10.37,2013-11-18 20:06:00,
2013-11-18 15:11:00,63.4,14.9,29.75,West,263,22.2,24.2,15,0.00,CLR,,0.14,216.0,WeatherDisplay:10.37,2013-11-18 20:11:00,
2013-11-18 15:16:00,63.2,16.2,29.76,WNW,301,22.1,24.2,16,0.00,CLR,,0.14,202.0,WeatherDisplay:10.37,2013-11-18 20:16:00,
2013-11-18 15:21:00,62.9,16.0,29.76,West,267,15.0,22.5,16,0.00,CLR,,0.14,185.0,WeatherDisplay:10.37,2013-11-18 20:21:00,
2013-11-18 15:26:00,62.7,15.8,29.76,WNW,297,21.5,23.0,16,0.00,CLR,,0.14,167.0,WeatherDisplay:10.37,2013-11-18 20:26:00,
2013-11-18 15:31:00,62.6,15.7,29.76,WNW,290,18.6,19.5,16,0.00,CLR,,0.14,151.0,WeatherDisplay:10.37,2013-11-18 20:31:00,
2013-11-18 15:36:00,62.4,17.0,29.76,WNW,288,18.3,26.5,17,0.00,CLR,,0.14,134.0,WeatherDisplay:10.37,2013-11-18 20:36:00,
2013-11-18 15:41:00,62.3,16.9,29.76,West,280,11.3,18.0,17,0.00,CLR,,0.14,121.0,WeatherDisplay:10.37,2013-11-18 20:41:00,
2013-11-18 15:46:00,62.3,18.2,29.76,West,271,18.4,23.0,18,0.00,CLR,,0.14,102.0,WeatherDisplay:10.37,2013-11-18 20:46:00,
2013-11-18 15:51:00,62.1,16.7,29.76,WSW,256,17.7,23.0,17,0.00,CLR,,0.14,90.0,WeatherDisplay:10.37,2013-11-18 20:51:00,
2013-11-18 15:56:00,62.1,18.0,29.76,WNW,283,7.6,16.1,18,0.00,CLR,,0.14,74.0,WeatherDisplay:10.37,2013-11-18 20:56:00,
2013-11-18 16:01:00,61.8,17.8,29.76,WSW,254,11.6,15.0,18,0.00,CLR,,0.14,60.0,WeatherDisplay:10.37,2013-11-18 21:01:00,
2013-11-18 16:06:00,61.6,17.6,29.76,WNW,286,19.8,23.0,18,0.00,CLR,,0.14,47.0,WeatherDisplay:10.37,2013-11-18 21:06:00,
2013-11-18 16:11:00,61.3,18.6,29.77,West,263,17.0,21.0,19,0.00,CLR,,0.14,37.0,WeatherDisplay:10.37,2013-11-18 21:11:00,
2013-11-18 16:16:00,61.0,17.1,29.77,West,259,22.5,26.5,18,0.00,CLR,,0.14,26.0,WeatherDisplay:10.37,2013-11-18 21:16:00,
2013-11-18 16:21:00,60.7,16.9,29.78,WNW,297,24.6,28.8,18,0.00,CLR,,0.14,19.0,WeatherDisplay:10.37,2013-11-18 21:21:00,
2013-11-18 16:26:00,60.2,18.9,29.78,NW,305,16.7,16.7,20,0.00,CLR,,0.14,16.0,WeatherDisplay:10.37,2013-11-18 21:26:00,
2013-11-18 16:31:00,59.8,18.6,29.78,WNW,301,13.6,16.1,20,0.00,CLR,,0.14,14.0,WeatherDisplay:10.37,2013-11-18 21:31:00,
2013-11-18 16:36:00,59.3,18.2,29.79,NW,309,15.7,18.4,20,0.00,CLR,,0.14,12.0,WeatherDisplay:10.37,2013-11-18 21:36:00,
2013-11-18 16:41:00,59.2,18.1,29.79,West,272,17.2,18.4,20,0.00,CLR,,0.14,11.0,WeatherDisplay:10.37,2013-11-18 21:41:00,
2013-11-18 16:46:00,59.0,17.9,29.79,WNW,302,8.4,13.5,20,0.00,CLR,,0.14,9.0,WeatherDisplay:10.37,2013-11-18 21:46:00,
2013-11-18 16:51:00,58.9,22.1,29.79,WNW,303,18.5,20.7,24,0.00,CLR,,0.14,5.0,WeatherDisplay:10.37,2013-11-18 21:51:00,
2013-11-18 16:56:00,58.6,18.7,29.80,WNW,288,15.8,20.7,21,0.00,CLR,,0.14,0.0,WeatherDisplay:10.37,2013-11-18 21:56:00,
2013-11-18 17:01:00,58.6,17.6,29.80,West,267,12.6,15.0,20,0.00,CLR,,0.14,0.0,WeatherDisplay:10.37,2013-11-18 22:01:00,
2013-11-18 17:06:00,58.4,17.4,29.81,WNW,291,14.8,18.4,20,0.00,CLR,,0.14,0.0,WeatherDisplay:10.37,2013-11-18 22:06:00,
2013-11-18 17:11:00,58.3,18.5,29.81,WNW,290,13.4,22.5,21,0.00,CLR,,0.14,0.0,WeatherDisplay:10.37,2013-11-18 22:11:00,
2013-11-18 17:16:00,58.1,18.3,29.81,NW,309,26.1,28.5,21,0.00,CLR,,0.14,0.0,WeatherDisplay:10.37,2013-11-18 22:16:00,
2013-11-18 17:21:00,58.1,18.3,29.81,NW,313,22.0,30.0,21,0.00,CLR,,0.14,0.0,WeatherDisplay:10.37,2013-11-18 22:21:00,
2013-11-18 17:26:00,58.0,18.2,29.81,WNW,298,21.4,23.0,21,0.00,CLR,,0.14,0.0,WeatherDisplay:10.37,2013-11-18 22:26:00,
2013-11-18 17:31:00,57.8,18.1,29.81,West,281,19.7,23.0,21,0.00,CLR,,0.14,0.0,WeatherDisplay:10.37,2013-11-18 22:31:00,
2013-11-18 17:36:00,57.5,17.8,29.82,WNW,290,15.0,19.5,21,0.00,CLR,,0.14,0.0,WeatherDisplay:10.37,2013-11-18 22:36:00,
2013-11-18 17:41:00,57.5,18.9,29.82,WNW,298,11.3,15.0,22,0.00,CLR,,0.14,0.0,WeatherDisplay:10.37,2013-11-18 22:41:00,
2013-11-18 17:46:00,57.2,18.6,29.83,WNW,301,15.4,16.1,22,0.00,CLR,,0.14,0.0,WeatherDisplay:10.37,2013-11-18 22:46:00,
2013-11-18 17:51:00,57.0,18.5,29.83,WNW,296,15.3,16.1,22,0.00,CLR,,0.14,0.0,WeatherDisplay:10.37,2013-11-18 22:51:00,
2013-11-18 17:56:00,56.7,19.3,29.83,WNW,293,13.4,18.4,23,0.00,CLR,,0.14,0.0,WeatherDisplay:10.37,2013-11-18 22:56:00,
2013-11-18 18:01:00,56.6,19.2,29.84,NW,315,12.5,19.5,23,0.00,FEW,,0.14,0.0,WeatherDisplay:10.37,2013-11-18 23:01:00,
2013-11-18 18:06:00,56.5,18.1,29.84,WNW,297,19.1,23.0,22,0.00,FEW,,0.14,0.0,WeatherDisplay:10.37,2013-11-18 23:06:00,
2013-11-18 18:11:00,56.5,19.1,29.84,WSW,258,10.1,15.0,23,0.00,FEW,,0.14,0.0,WeatherDisplay:10.37,2013-11-18 23:11:00,
2013-11-18 18:16:00,56.2,18.8,29.84,WNW,302,12.5,15.0,23,0.00,FEW,,0.14,0.0,WeatherDisplay:10.37,2013-11-18 23:16:00,
2013-11-18 18:21:00,56.0,18.7,29.84,WNW,297,8.2,9.0,23,0.00,FEW,,0.14,0.0,WeatherDisplay:10.37,2013-11-18 23:21:00,
2013-11-18 18:26:00,55.6,19.3,29.84,WNW,293,14.6,18.4,24,0.00,FEW,,0.14,0.0,WeatherDisplay:10.37,2013-11-18 23:26:00,
2013-11-18 18:31:00,55.4,19.2,29.84,West,265,18.5,18.5,24,0.00,FEW,,0.14,0.0,WeatherDisplay:10.37,2013-11-18 23:31:00,
2013-11-18 18:36:00,55.3,20.0,29.85,WNW,292,9.3,13.8,25,0.00,FEW,,0.14,0.0,WeatherDisplay:10.37,2013-11-18 23:36:00,
2013-11-18 18:41:00,55.3,19.1,29.85,West,262,18.1,19.6,24,0.00,FEW,,0.14,0.0,WeatherDisplay:10.37,2013-11-18 23:41:00,
2013-11-18 18:46:00,55.3,19.1,29.85,WNW,289,12.7,16.5,24,0.00,FEW,,0.14,0.0,WeatherDisplay:10.37,2013-11-18 23:46:00,
2013-11-18 18:51:00,55.3,19.1,29.86,WSW,241,10.1,19.5,24,0.00,FEW,,0.14,0.0,WeatherDisplay:10.37,2013-11-18 23:51:00,
2013-11-18 18:56:00,55.1,17.9,29.86,West,267,15.1,18.4,23,0.00,FEW,,0.14,0.0,WeatherDisplay:10.37,2013-11-18 23:56:00,
2013-11-18 19:01:00,55.0,18.8,29.86,WNW,296,11.4,15.0,24,0.00,FEW,,0.14,0.0,WeatherDisplay:10.37,2013-11-19 00:01:00,
2013-11-18 19:06:00,54.8,18.6,29.87,WNW,296,5.0,8.1,24,0.00,FEW,,0.14,0.0,WeatherDisplay:10.37,2013-11-19 00:06:00,
2013-11-18 19:11:00,54.5,18.4,29.87,NW,321,6.0,10.4,24,0.00,FEW,,0.14,0.0,WeatherDisplay:10.37,2013-11-19 00:11:00,
2013-11-18 19:16:00,54.1,18.1,29.87,WSW,257,10.2,10.5,24,0.00,CLR,,0.14,0.0,WeatherDisplay:10.37,2013-11-19 00:16:00,
2013-11-18 19:21:00,54.1,18.1,29.87,NW,307,10.8,13.8,24,0.00,CLR,,0.14,0.0,WeatherDisplay:10.37,2013-11-19 00:21:00,
2013-11-18 19:26:00,53.9,18.8,29.87,WNW,301,8.3,13.8,25,0.00,CLR,,0.14,0.0,WeatherDisplay:10.37,2013-11-19 00:26:00,
2013-11-18 19:31:00,53.9,17.9,29.87,WNW,292,18.4,21.0,24,0.00,CLR,,0.14,0.0,WeatherDisplay:10.37,2013-11-19 00:31:00,
2013-11-18 19:36:00,53.9,18.8,29.88,West,264,1.5,4.5,25,0.00,CLR,,0.14,0.0,WeatherDisplay:10.37,2013-11-19 00:36:00,
2013-11-18 19:41:00,53.5,18.5,29.88,West,280,6.1,9.2,25,0.00,CLR,,0.14,0.0,WeatherDisplay:10.37,2013-11-19 00:41:00,
2013-11-18 19:46:00,53.3,19.2,29.88,WNW,285,2.5,4.6,26,0.00,CLR,,0.14,0.0,WeatherDisplay:10.37,2013-11-19 00:46:00,
2013-11-18 19:51:00,52.9,18.9,29.89,WNW,292,10.4,13.8,26,0.00,CLR,,0.14,0.0,WeatherDisplay:10.37,2013-11-19 00:51:00,
2013-11-18 19:56:00,52.9,18.9,29.89,West,281,14.0,19.5,26,0.00,CLR,,0.14,0.0,WeatherDisplay:10.37,2013-11-19 00:56:00,
2013-11-18 20:01:00,53.1,19.1,29.89,West,263,16.0,18.4,26,0.00,CLR,,0.14,0.0,WeatherDisplay:10.37,2013-11-19 01:01:00,
2013-11-18 20:06:00,52.9,18.9,29.89,West,280,13.0,18.4,26,0.00,CLR,,0.14,0.0,WeatherDisplay:10.37,2013-11-19 01:06:00,
2013-11-18 20:11:00,52.8,18.8,29.90,WNW,293,16.7,24.2,26,0.00,CLR,,0.14,0.0,WeatherDisplay:10.37,2013-11-19 01:11:00,
2013-11-18 20:16:00,52.8,18.8,29.90,WNW,301,10.6,15.0,26,0.00,CLR,,0.14,0.0,WeatherDisplay:10.37,2013-11-19 01:16:00,
2013-11-18 20:21:00,52.8,18.8,29.90,West,259,17.1,19.6,26,0.00,CLR,,0.14,0.0,WeatherDisplay:10.37,2013-11-19 01:21:00,
2013-11-18 20:26:00,52.8,18.8,29.91,NW,311,20.8,24.2,26,0.00,CLR,,0.14,0.0,WeatherDisplay:10.37,2013-11-19 01:26:00,
2013-11-18 20:31:00,52.5,18.6,29.91,WNW,291,6.5,15.0,26,0.00,CLR,,0.14,0.0,WeatherDisplay:10.37,2013-11-19 01:31:00,
2013-11-18 20:36:00,51.9,18.9,29.91,NW,306,10.6,15.0,27,0.00,CLR,,0.14,0.0,WeatherDisplay:10.37,2013-11-19 01:36:00,
2013-11-18 20:41:00,51.7,18.7,29.92,NW,317,10.4,16.5,27,0.00,CLR,,0.14,0.0,WeatherDisplay:10.37,2013-11-19 01:41:00,
2013-11-18 20:45:00,51.6,18.7,29.92,WNW,285,7.0,9.2,27,0.00,CLR,,0.14,0.0,WeatherDisplay:10.37,2013-11-19 01:45:00,
2013-11-18 20:50:00,51.1,19.9,29.92,WNW,290,3.8,6.0,29,0.00,CLR,,0.14,0.0,WeatherDisplay:10.37,2013-11-19 01:50:00,
2013-11-18 20:55:00,50.8,18.8,29.92,West,281,17.4,20.7,28,0.00,CLR,,0.14,0.0,WeatherDisplay:10.37,2013-11-19 01:55:00,
2013-11-18 21:00:00,50.8,19.6,29.92,NNW,333,14.1,16.1,29,0.00,CLR,,0.14,0.0,WeatherDisplay:10.37,2013-11-19 02:00:00,
2013-11-18 21:05:00,51.0,19.8,29.93,NNW,333,22.0,22.0,29,0.00,CLR,,0.14,0.0,WeatherDisplay:10.37,2013-11-19 02:05:00,
2013-11-18 21:10:00,51.0,19.8,29.93,NNW,331,20.9,23.0,29,0.00,CLR,,0.14,0.0,WeatherDisplay:10.37,2013-11-19 02:10:00,
2013-11-18 21:15:00,50.8,19.6,29.93,NW,315,10.3,15.0,29,0.00,CLR,,0.14,0.0,WeatherDisplay:10.37,2013-11-19 02:15:00,
2013-11-18 21:20:00,50.5,20.2,29.94,WNW,299,10.8,15.0,30,0.00,CLR,,0.14,0.0,WeatherDisplay:10.37,2013-11-19 02:20:00,
2013-11-18 21:25:00,50.4,20.1,29.94,West,278,16.0,16.0,30,0.00,CLR,,0.14,0.0,WeatherDisplay:10.37,2013-11-19 02:25:00,
2013-11-18 21:30:00,50.2,20.7,29.94,NNW,331,9.4,13.8,31,0.00,CLR,,0.14,0.0,WeatherDisplay:10.37,2013-11-19 02:30:00,
2013-11-18 21:35:00,50.2,20.7,29.94,WNW,302,19.8,23.0,31,0.00,CLR,,0.14,0.0,WeatherDisplay:10.37,2013-11-19 02:35:00,
2013-11-18 21:40:00,50.2,20.7,29.94,West,277,20.4,26.5,31,0.00,CLR,,0.14,0.0,WeatherDisplay:10.37,2013-11-19 02:40:00,
2013-11-18 21:45:00,50.4,20.9,29.94,WNW,292,21.3,25.3,31,0.00,CLR,,0.14,0.0,WeatherDisplay:10.37,2013-11-19 02:45:00,
2013-11-18 21:50:00,50.1,20.6,29.94,WNW,303,11.6,20.7,31,0.00,CLR,,0.14,0.0,WeatherDisplay:10.37,2013-11-19 02:50:00,
2013-11-18 21:55:00,49.9,20.4,29.94,NW,317,23.1,27.0,31,0.00,CLR,,0.14,0.0,WeatherDisplay:10.37,2013-11-19 02:55:00,
2013-11-18 22:00:00,49.9,20.4,29.94,WNW,286,22.2,25.3,31,0.00,CLR,,0.14,0.0,WeatherDisplay:10.37,2013-11-19 03:00:00,
2013-11-18 22:05:00,49.8,21.1,29.94,WNW,282,23.1,24.0,32,0.00,CLR,,0.14,0.0,WeatherDisplay:10.37,2013-11-19 03:05:00,
2013-11-18 22:10:00,49.6,21.6,29.94,WNW,294,16.5,19.5,33,0.00,CLR,,0.14,0.0,WeatherDisplay:10.37,2013-11-19 03:10:00,
2013-11-18 22:15:00,49.5,21.5,29.94,West,273,14.1,19.6,33,0.00,CLR,,0.14,0.0,WeatherDisplay:10.37,2013-11-19 03:15:00,
2013-11-18 22:20:00,49.2,21.3,29.94,WNW,290,16.4,19.6,33,0.00,CLR,,0.14,0.0,WeatherDisplay:10.37,2013-11-19 03:20:00,
2013-11-18 22:25:00,48.9,21.0,29.94,WSW,257,21.3,21.3,33,0.00,CLR,,0.14,0.0,WeatherDisplay:10.37,2013-11-19 03:25:00,
2013-11-18 22:30:00,48.8,20.9,29.94,NNW,330,9.1,15.0,33,0.00,CLR,,0.14,0.0,WeatherDisplay:10.37,2013-11-19 03:30:00,
2013-11-18 22:35:00,48.6,20.8,29.95,WNW,285,14.2,16.5,33,0.00,CLR,,0.14,0.0,WeatherDisplay:10.37,2013-11-19 03:35:00,
2013-11-18 22:40:00,48.5,20.7,29.95,West,266,11.4,15.0,33,0.00,CLR,,0.14,0.0,WeatherDisplay:10.37,2013-11-19 03:40:00,
2013-11-18 22:45:00,48.3,20.5,29.95,WNW,302,15.3,16.1,33,0.00,CLR,,0.14,0.0,WeatherDisplay:10.37,2013-11-19 03:45:00,
2013-11-18 22:50:00,48.5,20.7,29.95,WNW,291,13.7,18.4,33,0.00,CLR,,0.14,0.0,WeatherDisplay:10.37,2013-11-19 03:50:00,
2013-11-18 22:55:00,48.5,20.7,29.95,WSW,238,18.6,19.6,33,0.00,CLR,,0.14,0.0,WeatherDisplay:10.37,2013-11-19 03:55:00,
2013-11-18 23:00:00,48.5,20.7,29.95,WSW,250,9.7,13.8,33,0.00,CLR,,0.14,0.0,WeatherDisplay:10.37,2013-11-19 04:00:00,
2013-11-18 23:05:00,48.3,21.2,29.95,NW,313,8.0,10.5,34,0.00,CLR,,0.14,0.0,WeatherDisplay:10.37,2013-11-19 04:05:00,
2013-11-18 23:07:00,48.2,21.1,29.95,NW,315,8.6,15.0,34,0.00,CLR,,0.14,0.0,WeatherDisplay:10.37,2013-11-19 04:07:00,
2013-11-18 23:12:00,48.5,20.7,29.95,WNW,302,17.4,20.7,33,0.00,CLR,,0.14,0.0,WeatherDisplay:10.37,2013-11-19 04:12:00,
2013-11-18 23:17:00,48.3,20.5,29.95,WNW,301,13.3,21.0,33,0.00,CLR,,0.14,0.0,WeatherDisplay:10.37,2013-11-19 04:17:00,
2013-11-18 23:22:00,48.2,20.4,29.95,West,276,14.8,21.0,33,0.00,CLR,,0.14,0.0,WeatherDisplay:10.37,2013-11-19 04:22:00,
2013-11-18 23:27:00,48.2,21.1,29.95,NW,307,8.5,9.2,34,0.00,CLR,,0.14,0.0,WeatherDisplay:10.37,2013-11-19 04:27:00,
2013-11-18 23:32:00,47.9,20.8,29.95,West,275,4.5,9.2,34,0.00,CLR,,0.14,0.0,WeatherDisplay:10.37,2013-11-19 04:32:00,
2013-11-18 23:37:00,47.6,21.3,29.95,NW,319,15.8,18.0,35,0.00,CLR,,0.14,0.0,WeatherDisplay:10.37,2013-11-19 04:37:00,
2013-11-18 23:42:00,47.9,20.1,29.95,NW,309,18.4,19.6,33,0.00,CLR,,0.14,0.0,WeatherDisplay:10.37,2013-11-19 04:42:00,
2013-11-18 23:47:00,48.0,20.2,29.95,NW,319,14.5,16.1,33,0.00,CLR,,0.14,0.0,WeatherDisplay:10.37,2013-11-19 04:47:00,
2013-11-18 23:52:00,47.9,20.1,29.95,NW,306,9.3,13.8,33,0.00,CLR,,0.14,0.0,WeatherDisplay:10.37,2013-11-19 04:52:00,
2013-11-18 23:57:00,47.9,19.4,29.95,NW,310,18.2,21.0,32,0.00,CLR,,0.14,0.0,WeatherDisplay:10.37,2013-11-19 04:57:00,